sensor_id;sensor_type;location;lat;lon;timestamp;P1;durP1;ratioP1;P2;durP2;ratioP2
5612;SDS011;63463;53.586;9.928;2023-02-04T00:00:06;4.80;;;4.70;;
5612;SDS011;63463;53.586;9.928;2023-02-04T00:02:33;4.57;;;4.47;;
5612;SDS011;63463;53.586;9.928;2023-02-04T00:04:59;5.17;;;4.87;;
5612;SDS011;63463;53.586;9.928;2023-02-04T00:07:25;5.37;;;4.97;;
5612;SDS011;63463;53.586;9.928;2023-02-04T00:09:51;4.90;;;4.60;;
5612;SDS011;63463;53.586;9.928;2023-02-04T00:12:17;4.60;;;4.50;;
5612;SDS011;63463;53.586;9.928;2023-02-04T00:14:43;5.27;;;4.83;;
5612;SDS011;63463;53.586;9.928;2023-02-04T00:17:09;4.90;;;4.60;;
5612;SDS011;63463;53.586;9.928;2023-02-04T00:19:37;4.80;;;4.60;;
5612;SDS011;63463;53.586;9.928;2023-02-04T00:22:03;6.83;;;4.67;;
5612;SDS011;63463;53.586;9.928;2023-02-04T00:24:29;4.93;;;4.80;;
5612;SDS011;63463;53.586;9.928;2023-02-04T00:26:55;5.07;;;4.87;;
5612;SDS011;63463;53.586;9.928;2023-02-04T00:29:21;4.90;;;4.70;;
5612;SDS011;63463;53.586;9.928;2023-02-04T00:31:47;5.10;;;4.90;;
5612;SDS011;63463;53.586;9.928;2023-02-04T00:34:13;4.93;;;4.80;;
5612;SDS011;63463;53.586;9.928;2023-02-04T00:36:39;4.90;;;4.60;;
5612;SDS011;63463;53.586;9.928;2023-02-04T00:39:05;5.03;;;4.73;;
5612;SDS011;63463;53.586;9.928;2023-02-04T00:41:31;5.57;;;5.27;;
5612;SDS011;63463;53.586;9.928;2023-02-04T00:43:57;11.00;;;4.80;;
5612;SDS011;63463;53.586;9.928;2023-02-04T00:46:23;5.00;;;4.90;;
5612;SDS011;63463;53.586;9.928;2023-02-04T00:48:49;5.13;;;4.93;;
5612;SDS011;63463;53.586;9.928;2023-02-04T00:51:15;5.20;;;5.00;;
5612;SDS011;63463;53.586;9.928;2023-02-04T00:53:40;4.90;;;4.70;;
5612;SDS011;63463;53.586;9.928;2023-02-04T00:56:06;5.27;;;5.07;;
5612;SDS011;63463;53.586;9.928;2023-02-04T00:58:32;5.17;;;4.90;;
5612;SDS011;63463;53.586;9.928;2023-02-04T01:00:58;4.83;;;4.60;;
5612;SDS011;63463;53.586;9.928;2023-02-04T01:03:24;4.90;;;4.80;;
5612;SDS011;63463;53.586;9.928;2023-02-04T01:05:50;4.77;;;4.47;;
5612;SDS011;63463;53.586;9.928;2023-02-04T01:08:16;4.87;;;4.77;;
5612;SDS011;63463;53.586;9.928;2023-02-04T01:10:42;5.43;;;5.03;;
5612;SDS011;63463;53.586;9.928;2023-02-04T01:13:08;5.70;;;5.10;;
5612;SDS011;63463;53.586;9.928;2023-02-04T01:15:34;4.90;;;4.70;;
5612;SDS011;63463;53.586;9.928;2023-02-04T01:18:01;5.27;;;5.00;;
5612;SDS011;63463;53.586;9.928;2023-02-04T01:20:27;6.13;;;4.90;;
5612;SDS011;63463;53.586;9.928;2023-02-04T01:22:53;6.30;;;4.90;;
5612;SDS011;63463;53.586;9.928;2023-02-04T01:25:18;5.10;;;4.90;;
5612;SDS011;63463;53.586;9.928;2023-02-04T01:27:44;5.43;;;5.10;;
5612;SDS011;63463;53.586;9.928;2023-02-04T01:30:11;6.20;;;5.67;;
5612;SDS011;63463;53.586;9.928;2023-02-04T01:32:38;5.40;;;5.20;;
5612;SDS011;63463;53.586;9.928;2023-02-04T01:35:04;4.90;;;4.80;;
5612;SDS011;63463;53.586;9.928;2023-02-04T01:37:30;4.97;;;4.80;;
5612;SDS011;63463;53.586;9.928;2023-02-04T01:39:56;5.30;;;5.10;;
5612;SDS011;63463;53.586;9.928;2023-02-04T01:42:22;5.23;;;5.03;;
5612;SDS011;63463;53.586;9.928;2023-02-04T01:44:48;5.53;;;5.23;;
5612;SDS011;63463;53.586;9.928;2023-02-04T01:47:14;5.00;;;4.80;;
5612;SDS011;63463;53.586;9.928;2023-02-04T01:49:40;5.20;;;5.00;;
5612;SDS011;63463;53.586;9.928;2023-02-04T01:52:06;5.50;;;5.20;;
5612;SDS011;63463;53.586;9.928;2023-02-04T01:54:34;5.63;;;5.20;;
5612;SDS011;63463;53.586;9.928;2023-02-04T01:57:00;5.30;;;4.90;;
5612;SDS011;63463;53.586;9.928;2023-02-04T01:59:26;5.50;;;5.10;;
5612;SDS011;63463;53.586;9.928;2023-02-04T02:01:52;5.43;;;5.23;;
5612;SDS011;63463;53.586;9.928;2023-02-04T02:04:20;5.70;;;5.40;;
5612;SDS011;63463;53.586;9.928;2023-02-04T02:06:54;5.17;;;4.80;;
5612;SDS011;63463;53.586;9.928;2023-02-04T02:09:22;6.10;;;5.70;;
5612;SDS011;63463;53.586;9.928;2023-02-04T02:11:49;5.27;;;5.17;;
5612;SDS011;63463;53.586;9.928;2023-02-04T02:14:14;5.97;;;5.57;;
5612;SDS011;63463;53.586;9.928;2023-02-04T02:16:40;5.67;;;5.37;;
5612;SDS011;63463;53.586;9.928;2023-02-04T02:19:07;5.60;;;5.10;;
5612;SDS011;63463;53.586;9.928;2023-02-04T02:21:37;5.10;;;5.00;;
5612;SDS011;63463;53.586;9.928;2023-02-04T02:24:49;5.83;;;5.43;;
5612;SDS011;63463;53.586;9.928;2023-02-04T02:26:51;4.90;;;4.73;;
5612;SDS011;63463;53.586;9.928;2023-02-04T02:29:17;5.73;;;5.33;;
5612;SDS011;63463;53.586;9.928;2023-02-04T02:31:43;5.90;;;5.40;;
5612;SDS011;63463;53.586;9.928;2023-02-04T02:34:09;5.30;;;5.10;;
5612;SDS011;63463;53.586;9.928;2023-02-04T02:36:35;5.40;;;5.20;;
5612;SDS011;63463;53.586;9.928;2023-02-04T02:39:01;7.50;;;5.30;;
5612;SDS011;63463;53.586;9.928;2023-02-04T02:41:27;5.80;;;5.40;;
5612;SDS011;63463;53.586;9.928;2023-02-04T02:43:53;5.77;;;5.40;;
5612;SDS011;63463;53.586;9.928;2023-02-04T02:46:19;5.87;;;5.30;;
5612;SDS011;63463;53.586;9.928;2023-02-04T02:48:45;6.97;;;6.47;;
5612;SDS011;63463;53.586;9.928;2023-02-04T02:51:11;6.30;;;6.00;;
5612;SDS011;63463;53.586;9.928;2023-02-04T02:53:37;5.70;;;5.40;;
5612;SDS011;63463;53.586;9.928;2023-02-04T02:56:03;5.83;;;5.63;;
5612;SDS011;63463;53.586;9.928;2023-02-04T02:58:33;5.33;;;5.13;;
5612;SDS011;63463;53.586;9.928;2023-02-04T03:01:00;6.20;;;5.63;;
5612;SDS011;63463;53.586;9.928;2023-02-04T03:03:27;5.70;;;5.30;;
5612;SDS011;63463;53.586;9.928;2023-02-04T03:05:56;5.73;;;5.43;;
5612;SDS011;63463;53.586;9.928;2023-02-04T03:08:24;6.03;;;5.60;;
5612;SDS011;63463;53.586;9.928;2023-02-04T03:10:50;5.33;;;5.13;;
5612;SDS011;63463;53.586;9.928;2023-02-04T03:13:17;5.57;;;5.37;;
5612;SDS011;63463;53.586;9.928;2023-02-04T03:15:43;7.10;;;6.40;;
5612;SDS011;63463;53.586;9.928;2023-02-04T03:18:10;5.60;;;5.40;;
5612;SDS011;63463;53.586;9.928;2023-02-04T03:20:36;6.23;;;5.73;;
5612;SDS011;63463;53.586;9.928;2023-02-04T03:23:02;5.40;;;5.10;;
5612;SDS011;63463;53.586;9.928;2023-02-04T03:25:28;5.90;;;5.60;;
5612;SDS011;63463;53.586;9.928;2023-02-04T03:27:56;6.37;;;5.87;;
5612;SDS011;63463;53.586;9.928;2023-02-04T03:30:22;5.17;;;5.03;;
5612;SDS011;63463;53.586;9.928;2023-02-04T03:32:49;6.20;;;5.70;;
5612;SDS011;63463;53.586;9.928;2023-02-04T03:35:15;6.10;;;5.70;;
5612;SDS011;63463;53.586;9.928;2023-02-04T03:37:41;5.53;;;5.20;;
5612;SDS011;63463;53.586;9.928;2023-02-04T03:40:08;6.33;;;5.93;;
5612;SDS011;63463;53.586;9.928;2023-02-04T03:42:34;5.30;;;5.10;;
5612;SDS011;63463;53.586;9.928;2023-02-04T03:45:00;9.20;;;5.87;;
5612;SDS011;63463;53.586;9.928;2023-02-04T03:47:26;6.20;;;5.70;;
5612;SDS011;63463;53.586;9.928;2023-02-04T03:49:52;5.93;;;5.73;;
5612;SDS011;63463;53.586;9.928;2023-02-04T03:52:18;6.10;;;5.80;;
5612;SDS011;63463;53.586;9.928;2023-02-04T03:54:44;7.20;;;6.70;;
5612;SDS011;63463;53.586;9.928;2023-02-04T03:57:10;7.20;;;6.07;;
5612;SDS011;63463;53.586;9.928;2023-02-04T03:59:36;6.63;;;6.00;;
5612;SDS011;63463;53.586;9.928;2023-02-04T04:02:02;6.80;;;6.30;;
5612;SDS011;63463;53.586;9.928;2023-02-04T04:04:28;6.77;;;6.27;;
5612;SDS011;63463;53.586;9.928;2023-02-04T04:06:54;6.20;;;5.80;;
5612;SDS011;63463;53.586;9.928;2023-02-04T04:09:20;7.00;;;6.13;;
5612;SDS011;63463;53.586;9.928;2023-02-04T04:11:46;7.50;;;6.80;;
5612;SDS011;63463;53.586;9.928;2023-02-04T04:14:12;6.87;;;6.47;;
5612;SDS011;63463;53.586;9.928;2023-02-04T04:16:38;6.07;;;5.67;;
5612;SDS011;63463;53.586;9.928;2023-02-04T04:19:04;5.87;;;5.67;;
5612;SDS011;63463;53.586;9.928;2023-02-04T04:21:30;6.90;;;6.50;;
5612;SDS011;63463;53.586;9.928;2023-02-04T04:23:56;6.43;;;6.13;;
5612;SDS011;63463;53.586;9.928;2023-02-04T04:26:22;6.77;;;6.47;;
5612;SDS011;63463;53.586;9.928;2023-02-04T04:28:48;6.93;;;6.43;;
5612;SDS011;63463;53.586;9.928;2023-02-04T04:31:14;7.57;;;6.67;;
5612;SDS011;63463;53.586;9.928;2023-02-04T04:33:40;6.77;;;6.30;;
5612;SDS011;63463;53.586;9.928;2023-02-04T04:36:06;6.77;;;6.17;;
5612;SDS011;63463;53.586;9.928;2023-02-04T04:38:32;6.80;;;6.40;;
5612;SDS011;63463;53.586;9.928;2023-02-04T04:40:58;6.00;;;5.70;;
5612;SDS011;63463;53.586;9.928;2023-02-04T04:43:24;6.80;;;6.00;;
5612;SDS011;63463;53.586;9.928;2023-02-04T04:45:51;7.30;;;6.80;;
5612;SDS011;63463;53.586;9.928;2023-02-04T04:48:17;6.40;;;5.90;;
5612;SDS011;63463;53.586;9.928;2023-02-04T04:50:43;6.80;;;6.20;;
5612;SDS011;63463;53.586;9.928;2023-02-04T04:53:09;7.30;;;6.00;;
5612;SDS011;63463;53.586;9.928;2023-02-04T04:55:38;6.67;;;6.17;;
5612;SDS011;63463;53.586;9.928;2023-02-04T04:58:04;5.67;;;5.47;;
5612;SDS011;63463;53.586;9.928;2023-02-04T05:00:30;6.93;;;5.93;;
5612;SDS011;63463;53.586;9.928;2023-02-04T05:02:56;8.00;;;6.47;;
5612;SDS011;63463;53.586;9.928;2023-02-04T05:05:22;6.13;;;5.80;;
5612;SDS011;63463;53.586;9.928;2023-02-04T05:07:48;6.80;;;6.33;;
5612;SDS011;63463;53.586;9.928;2023-02-04T05:10:14;6.30;;;6.00;;
5612;SDS011;63463;53.586;9.928;2023-02-04T05:12:40;6.30;;;5.80;;
5612;SDS011;63463;53.586;9.928;2023-02-04T05:15:06;6.87;;;6.37;;
5612;SDS011;63463;53.586;9.928;2023-02-04T05:17:32;7.07;;;6.47;;
5612;SDS011;63463;53.586;9.928;2023-02-04T05:19:58;6.37;;;6.07;;
5612;SDS011;63463;53.586;9.928;2023-02-04T05:22:25;6.93;;;6.50;;
5612;SDS011;63463;53.586;9.928;2023-02-04T05:24:50;6.40;;;6.07;;
5612;SDS011;63463;53.586;9.928;2023-02-04T05:27:16;6.47;;;5.97;;
5612;SDS011;63463;53.586;9.928;2023-02-04T05:29:42;7.20;;;6.50;;
5612;SDS011;63463;53.586;9.928;2023-02-04T05:32:08;7.30;;;6.70;;
5612;SDS011;63463;53.586;9.928;2023-02-04T05:34:34;6.77;;;6.10;;
5612;SDS011;63463;53.586;9.928;2023-02-04T05:37:00;6.83;;;6.33;;
5612;SDS011;63463;53.586;9.928;2023-02-04T05:39:26;6.40;;;5.90;;
5612;SDS011;63463;53.586;9.928;2023-02-04T05:41:52;6.00;;;5.80;;
5612;SDS011;63463;53.586;9.928;2023-02-04T05:44:18;6.43;;;6.03;;
5612;SDS011;63463;53.586;9.928;2023-02-04T05:46:44;6.83;;;6.20;;
5612;SDS011;63463;53.586;9.928;2023-02-04T05:49:10;6.40;;;6.10;;
5612;SDS011;63463;53.586;9.928;2023-02-04T05:51:36;6.67;;;6.27;;
5612;SDS011;63463;53.586;9.928;2023-02-04T05:54:02;7.00;;;6.50;;
5612;SDS011;63463;53.586;9.928;2023-02-04T05:56:28;9.03;;;6.60;;
5612;SDS011;63463;53.586;9.928;2023-02-04T05:58:54;6.50;;;6.10;;
5612;SDS011;63463;53.586;9.928;2023-02-04T06:01:20;6.90;;;6.40;;
5612;SDS011;63463;53.586;9.928;2023-02-04T06:03:46;6.60;;;6.20;;
5612;SDS011;63463;53.586;9.928;2023-02-04T06:06:12;6.17;;;5.87;;
5612;SDS011;63463;53.586;9.928;2023-02-04T06:08:38;9.27;;;5.97;;
5612;SDS011;63463;53.586;9.928;2023-02-04T06:11:04;6.77;;;6.27;;
5612;SDS011;63463;53.586;9.928;2023-02-04T06:13:30;6.77;;;6.17;;
5612;SDS011;63463;53.586;9.928;2023-02-04T06:15:56;6.50;;;6.10;;
5612;SDS011;63463;53.586;9.928;2023-02-04T06:18:22;6.83;;;6.43;;
5612;SDS011;63463;53.586;9.928;2023-02-04T06:20:48;7.23;;;6.73;;
5612;SDS011;63463;53.586;9.928;2023-02-04T06:23:14;7.87;;;7.07;;
5612;SDS011;63463;53.586;9.928;2023-02-04T06:25:40;7.77;;;7.10;;
5612;SDS011;63463;53.586;9.928;2023-02-04T06:28:06;11.67;;;7.63;;
5612;SDS011;63463;53.586;9.928;2023-02-04T06:30:32;6.93;;;6.50;;
5612;SDS011;63463;53.586;9.928;2023-02-04T06:32:58;6.43;;;6.13;;
5612;SDS011;63463;53.586;9.928;2023-02-04T06:35:24;7.23;;;6.63;;
5612;SDS011;63463;53.586;9.928;2023-02-04T06:37:50;7.87;;;7.17;;
5612;SDS011;63463;53.586;9.928;2023-02-04T06:40:16;7.17;;;6.70;;
5612;SDS011;63463;53.586;9.928;2023-02-04T06:42:42;7.73;;;7.03;;
5612;SDS011;63463;53.586;9.928;2023-02-04T06:45:08;6.53;;;6.23;;
5612;SDS011;63463;53.586;9.928;2023-02-04T06:47:34;7.10;;;6.70;;
5612;SDS011;63463;53.586;9.928;2023-02-04T06:50:00;7.10;;;6.50;;
5612;SDS011;63463;53.586;9.928;2023-02-04T06:55:29;8.07;;;7.30;;
5612;SDS011;63463;53.586;9.928;2023-02-04T06:57:55;7.70;;;7.10;;
5612;SDS011;63463;53.586;9.928;2023-02-04T07:00:21;7.03;;;6.53;;
5612;SDS011;63463;53.586;9.928;2023-02-04T07:02:47;7.30;;;6.83;;
5612;SDS011;63463;53.586;9.928;2023-02-04T07:05:13;7.27;;;6.73;;
5612;SDS011;63463;53.586;9.928;2023-02-04T07:07:39;7.87;;;7.27;;
5612;SDS011;63463;53.586;9.928;2023-02-04T07:10:05;7.33;;;6.83;;
5612;SDS011;63463;53.586;9.928;2023-02-04T07:12:31;7.70;;;7.10;;
5612;SDS011;63463;53.586;9.928;2023-02-04T07:14:57;7.20;;;6.70;;
5612;SDS011;63463;53.586;9.928;2023-02-04T07:17:23;7.30;;;6.87;;
5612;SDS011;63463;53.586;9.928;2023-02-04T07:19:49;7.47;;;6.90;;
5612;SDS011;63463;53.586;9.928;2023-02-04T07:22:16;7.87;;;7.27;;
5612;SDS011;63463;53.586;9.928;2023-02-04T07:24:42;7.30;;;6.80;;
5612;SDS011;63463;53.586;9.928;2023-02-04T07:27:08;11.50;;;7.53;;
5612;SDS011;63463;53.586;9.928;2023-02-04T07:29:34;7.40;;;6.90;;
5612;SDS011;63463;53.586;9.928;2023-02-04T07:32:00;7.50;;;7.00;;
5612;SDS011;63463;53.586;9.928;2023-02-04T07:34:26;9.07;;;8.03;;
5612;SDS011;63463;53.586;9.928;2023-02-04T07:36:52;8.33;;;7.40;;
5612;SDS011;63463;53.586;9.928;2023-02-04T07:39:18;7.70;;;7.20;;
5612;SDS011;63463;53.586;9.928;2023-02-04T07:41:44;7.87;;;7.27;;
5612;SDS011;63463;53.586;9.928;2023-02-04T07:44:10;8.67;;;7.97;;
5612;SDS011;63463;53.586;9.928;2023-02-04T07:46:36;11.90;;;7.67;;
5612;SDS011;63463;53.586;9.928;2023-02-04T07:49:02;8.10;;;7.40;;
5612;SDS011;63463;53.586;9.928;2023-02-04T07:51:28;9.80;;;8.90;;
5612;SDS011;63463;53.586;9.928;2023-02-04T07:53:55;7.93;;;7.20;;
5612;SDS011;63463;53.586;9.928;2023-02-04T07:56:21;7.87;;;7.33;;
5612;SDS011;63463;53.586;9.928;2023-02-04T07:58:47;7.90;;;7.30;;
5612;SDS011;63463;53.586;9.928;2023-02-04T08:01:13;10.73;;;8.33;;
5612;SDS011;63463;53.586;9.928;2023-02-04T08:03:39;12.27;;;9.23;;
5612;SDS011;63463;53.586;9.928;2023-02-04T08:06:06;17.80;;;11.70;;
5612;SDS011;63463;53.586;9.928;2023-02-04T08:08:32;16.63;;;10.63;;
5612;SDS011;63463;53.586;9.928;2023-02-04T08:10:58;12.20;;;8.57;;
5612;SDS011;63463;53.586;9.928;2023-02-04T08:13:24;9.57;;;8.10;;
5612;SDS011;63463;53.586;9.928;2023-02-04T08:15:50;9.27;;;8.40;;
5612;SDS011;63463;53.586;9.928;2023-02-04T08:18:16;8.37;;;7.57;;
5612;SDS011;63463;53.586;9.928;2023-02-04T08:20:42;8.17;;;7.50;;
5612;SDS011;63463;53.586;9.928;2023-02-04T08:23:08;7.50;;;6.87;;
5612;SDS011;63463;53.586;9.928;2023-02-04T08:25:34;10.10;;;7.33;;
5612;SDS011;63463;53.586;9.928;2023-02-04T08:28:00;7.43;;;6.90;;
5612;SDS011;63463;53.586;9.928;2023-02-04T08:30:26;8.17;;;7.37;;
5612;SDS011;63463;53.586;9.928;2023-02-04T08:32:52;8.47;;;7.30;;
5612;SDS011;63463;53.586;9.928;2023-02-04T08:35:18;7.83;;;7.10;;
5612;SDS011;63463;53.586;9.928;2023-02-04T08:37:44;10.90;;;7.90;;
5612;SDS011;63463;53.586;9.928;2023-02-04T08:40:10;9.67;;;7.00;;
5612;SDS011;63463;53.586;9.928;2023-02-04T08:42:36;7.03;;;6.57;;
5612;SDS011;63463;53.586;9.928;2023-02-04T08:45:02;13.03;;;7.43;;
5612;SDS011;63463;53.586;9.928;2023-02-04T08:47:28;13.33;;;7.50;;
5612;SDS011;63463;53.586;9.928;2023-02-04T08:49:54;10.10;;;6.97;;
5612;SDS011;63463;53.586;9.928;2023-02-04T08:52:20;17.57;;;7.30;;
5612;SDS011;63463;53.586;9.928;2023-02-04T08:54:46;7.10;;;6.60;;
5612;SDS011;63463;53.586;9.928;2023-02-04T08:57:12;6.80;;;6.33;;
5612;SDS011;63463;53.586;9.928;2023-02-04T08:59:39;9.97;;;6.83;;
5612;SDS011;63463;53.586;9.928;2023-02-04T09:02:05;6.57;;;6.20;;
5612;SDS011;63463;53.586;9.928;2023-02-04T09:04:31;6.90;;;6.43;;
5612;SDS011;63463;53.586;9.928;2023-02-04T09:06:57;7.23;;;6.67;;
5612;SDS011;63463;53.586;9.928;2023-02-04T09:09:23;6.40;;;6.10;;
5612;SDS011;63463;53.586;9.928;2023-02-04T09:11:49;6.63;;;6.30;;
5612;SDS011;63463;53.586;9.928;2023-02-04T09:14:15;10.27;;;6.47;;
5612;SDS011;63463;53.586;9.928;2023-02-04T09:16:41;6.17;;;5.87;;
5612;SDS011;63463;53.586;9.928;2023-02-04T09:19:07;6.77;;;6.17;;
5612;SDS011;63463;53.586;9.928;2023-02-04T09:21:36;7.47;;;6.73;;
5612;SDS011;63463;53.586;9.928;2023-02-04T09:24:02;6.47;;;6.10;;
5612;SDS011;63463;53.586;9.928;2023-02-04T09:26:28;6.60;;;6.00;;
5612;SDS011;63463;53.586;9.928;2023-02-04T09:28:55;6.33;;;5.93;;
5612;SDS011;63463;53.586;9.928;2023-02-04T09:31:21;5.80;;;5.50;;
5612;SDS011;63463;53.586;9.928;2023-02-04T09:33:47;6.27;;;5.77;;
5612;SDS011;63463;53.586;9.928;2023-02-04T09:36:13;6.20;;;5.90;;
5612;SDS011;63463;53.586;9.928;2023-02-04T09:38:39;6.93;;;5.60;;
5612;SDS011;63463;53.586;9.928;2023-02-04T09:41:06;6.10;;;5.70;;
5612;SDS011;63463;53.586;9.928;2023-02-04T09:43:42;5.57;;;5.27;;
5612;SDS011;63463;53.586;9.928;2023-02-04T09:46:15;6.20;;;5.73;;
5612;SDS011;63463;53.586;9.928;2023-02-04T09:48:43;5.93;;;5.53;;
5612;SDS011;63463;53.586;9.928;2023-02-04T09:51:09;6.07;;;5.77;;
5612;SDS011;63463;53.586;9.928;2023-02-04T09:53:37;5.97;;;5.57;;
5612;SDS011;63463;53.586;9.928;2023-02-04T09:56:03;5.43;;;5.13;;
5612;SDS011;63463;53.586;9.928;2023-02-04T09:58:31;5.23;;;5.00;;
5612;SDS011;63463;53.586;9.928;2023-02-04T10:01:00;5.23;;;4.93;;
5612;SDS011;63463;53.586;9.928;2023-02-04T10:03:26;5.87;;;5.20;;
5612;SDS011;63463;53.586;9.928;2023-02-04T10:05:52;5.47;;;5.17;;
5612;SDS011;63463;53.586;9.928;2023-02-04T10:08:19;5.93;;;5.63;;
5612;SDS011;63463;53.586;9.928;2023-02-04T10:10:46;6.23;;;5.73;;
5612;SDS011;63463;53.586;9.928;2023-02-04T10:13:17;6.50;;;5.97;;
5612;SDS011;63463;53.586;9.928;2023-02-04T10:15:43;6.23;;;5.73;;
5612;SDS011;63463;53.586;9.928;2023-02-04T10:18:10;5.80;;;5.47;;
5612;SDS011;63463;53.586;9.928;2023-02-04T10:20:37;5.77;;;5.30;;
5612;SDS011;63463;53.586;9.928;2023-02-04T10:23:04;5.63;;;5.20;;
5612;SDS011;63463;53.586;9.928;2023-02-04T10:25:31;5.50;;;5.30;;
5612;SDS011;63463;53.586;9.928;2023-02-04T10:27:58;7.83;;;5.70;;
5612;SDS011;63463;53.586;9.928;2023-02-04T10:30:25;5.60;;;5.20;;
5612;SDS011;63463;53.586;9.928;2023-02-04T10:32:51;6.00;;;5.50;;
5612;SDS011;63463;53.586;9.928;2023-02-04T10:35:18;5.70;;;5.20;;
5612;SDS011;63463;53.586;9.928;2023-02-04T10:37:44;5.60;;;5.10;;
5612;SDS011;63463;53.586;9.928;2023-02-04T10:40:27;5.83;;;5.43;;
5612;SDS011;63463;53.586;9.928;2023-02-04T10:42:53;5.13;;;4.93;;
5612;SDS011;63463;53.586;9.928;2023-02-04T10:45:29;5.50;;;5.10;;
5612;SDS011;63463;53.586;9.928;2023-02-04T10:47:55;5.87;;;5.50;;
5612;SDS011;63463;53.586;9.928;2023-02-04T10:50:22;5.20;;;5.00;;
5612;SDS011;63463;53.586;9.928;2023-02-04T10:52:58;5.10;;;4.80;;
5612;SDS011;63463;53.586;9.928;2023-02-04T10:55:44;5.40;;;5.10;;
5612;SDS011;63463;53.586;9.928;2023-02-04T10:58:11;5.63;;;5.10;;
5612;SDS011;63463;53.586;9.928;2023-02-04T11:00:38;5.00;;;4.80;;
5612;SDS011;63463;53.586;9.928;2023-02-04T11:03:27;5.03;;;4.73;;
5612;SDS011;63463;53.586;9.928;2023-02-04T11:05:52;5.03;;;4.70;;
5612;SDS011;63463;53.586;9.928;2023-02-04T11:08:22;4.73;;;4.53;;
5612;SDS011;63463;53.586;9.928;2023-02-04T11:10:49;7.73;;;5.00;;
5612;SDS011;63463;53.586;9.928;2023-02-04T11:13:23;5.47;;;5.10;;
5612;SDS011;63463;53.586;9.928;2023-02-04T11:15:50;5.17;;;4.87;;
5612;SDS011;63463;53.586;9.928;2023-02-04T11:20:49;5.03;;;4.83;;
5612;SDS011;63463;53.586;9.928;2023-02-04T11:23:16;5.00;;;4.70;;
5612;SDS011;63463;53.586;9.928;2023-02-04T11:26:03;5.43;;;5.13;;
5612;SDS011;63463;53.586;9.928;2023-02-04T11:28:37;5.20;;;4.90;;
5612;SDS011;63463;53.586;9.928;2023-02-04T11:31:11;5.33;;;5.07;;
5612;SDS011;63463;53.586;9.928;2023-02-04T11:33:38;5.13;;;4.93;;
5612;SDS011;63463;53.586;9.928;2023-02-04T11:36:06;7.40;;;5.60;;
5612;SDS011;63463;53.586;9.928;2023-02-04T11:38:32;5.27;;;5.00;;
5612;SDS011;63463;53.586;9.928;2023-02-04T11:40:58;6.10;;;5.70;;
5612;SDS011;63463;53.586;9.928;2023-02-04T11:43:25;5.80;;;5.40;;
5612;SDS011;63463;53.586;9.928;2023-02-04T11:46:14;5.40;;;5.10;;
5612;SDS011;63463;53.586;9.928;2023-02-04T11:48:40;5.50;;;5.03;;
5612;SDS011;63463;53.586;9.928;2023-02-04T11:51:11;4.60;;;4.40;;
5612;SDS011;63463;53.586;9.928;2023-02-04T11:53:38;5.20;;;5.00;;
5612;SDS011;63463;53.586;9.928;2023-02-04T11:56:05;7.70;;;5.00;;
5612;SDS011;63463;53.586;9.928;2023-02-04T11:58:31;5.13;;;4.90;;
5612;SDS011;63463;53.586;9.928;2023-02-04T12:00:57;4.60;;;4.30;;
5612;SDS011;63463;53.586;9.928;2023-02-04T12:03:28;4.70;;;4.50;;
5612;SDS011;63463;53.586;9.928;2023-02-04T12:06:00;4.40;;;4.30;;
5612;SDS011;63463;53.586;9.928;2023-02-04T12:08:30;5.03;;;4.70;;
5612;SDS011;63463;53.586;9.928;2023-02-04T12:11:04;5.20;;;4.77;;
5612;SDS011;63463;53.586;9.928;2023-02-04T12:13:31;10.00;;;5.07;;
5612;SDS011;63463;53.586;9.928;2023-02-04T12:16:01;5.30;;;5.00;;
5612;SDS011;63463;53.586;9.928;2023-02-04T12:18:28;6.10;;;5.50;;
5612;SDS011;63463;53.586;9.928;2023-02-04T12:20:54;5.73;;;4.87;;
5612;SDS011;63463;53.586;9.928;2023-02-04T12:23:22;5.30;;;4.80;;
5612;SDS011;63463;53.586;9.928;2023-02-04T12:25:48;5.40;;;4.90;;
5612;SDS011;63463;53.586;9.928;2023-02-04T12:28:14;4.43;;;4.33;;
5612;SDS011;63463;53.586;9.928;2023-02-04T12:30:40;5.33;;;5.03;;
5612;SDS011;63463;53.586;9.928;2023-02-04T12:33:06;5.37;;;4.90;;
5612;SDS011;63463;53.586;9.928;2023-02-04T12:35:32;4.90;;;4.70;;
5612;SDS011;63463;53.586;9.928;2023-02-04T12:37:59;5.20;;;4.90;;
5612;SDS011;63463;53.586;9.928;2023-02-04T12:40:25;5.00;;;4.60;;
5612;SDS011;63463;53.586;9.928;2023-02-04T12:42:51;5.30;;;4.70;;
5612;SDS011;63463;53.586;9.928;2023-02-04T12:45:17;5.30;;;4.90;;
5612;SDS011;63463;53.586;9.928;2023-02-04T12:47:43;4.90;;;4.70;;
5612;SDS011;63463;53.586;9.928;2023-02-04T12:50:10;4.73;;;4.53;;
5612;SDS011;63463;53.586;9.928;2023-02-04T12:52:37;4.63;;;4.43;;
5612;SDS011;63463;53.586;9.928;2023-02-04T12:55:03;5.00;;;4.40;;
5612;SDS011;63463;53.586;9.928;2023-02-04T12:57:30;4.77;;;4.50;;
5612;SDS011;63463;53.586;9.928;2023-02-04T12:59:56;4.50;;;4.30;;
5612;SDS011;63463;53.586;9.928;2023-02-04T13:02:23;5.10;;;4.80;;
5612;SDS011;63463;53.586;9.928;2023-02-04T13:04:50;5.77;;;5.37;;
5612;SDS011;63463;53.586;9.928;2023-02-04T13:07:16;5.10;;;4.80;;
5612;SDS011;63463;53.586;9.928;2023-02-04T13:09:42;5.30;;;5.00;;
5612;SDS011;63463;53.586;9.928;2023-02-04T13:12:09;5.10;;;4.80;;
5612;SDS011;63463;53.586;9.928;2023-02-04T13:14:37;4.93;;;4.73;;
5612;SDS011;63463;53.586;9.928;2023-02-04T13:17:04;4.23;;;4.13;;
5612;SDS011;63463;53.586;9.928;2023-02-04T13:19:30;5.10;;;4.60;;
5612;SDS011;63463;53.586;9.928;2023-02-04T13:21:56;5.00;;;4.73;;
5612;SDS011;63463;53.586;9.928;2023-02-04T13:24:22;4.70;;;4.50;;
5612;SDS011;63463;53.586;9.928;2023-02-04T13:26:48;4.60;;;4.50;;
5612;SDS011;63463;53.586;9.928;2023-02-04T13:29:15;4.40;;;4.30;;
5612;SDS011;63463;53.586;9.928;2023-02-04T13:31:41;4.80;;;4.60;;
5612;SDS011;63463;53.586;9.928;2023-02-04T13:34:07;5.10;;;4.80;;
5612;SDS011;63463;53.586;9.928;2023-02-04T13:36:33;5.33;;;5.00;;
5612;SDS011;63463;53.586;9.928;2023-02-04T13:38:59;5.00;;;4.60;;
5612;SDS011;63463;53.586;9.928;2023-02-04T13:41:25;4.50;;;4.30;;
5612;SDS011;63463;53.586;9.928;2023-02-04T13:43:51;5.70;;;4.70;;
5612;SDS011;63463;53.586;9.928;2023-02-04T13:46:19;5.00;;;4.77;;
5612;SDS011;63463;53.586;9.928;2023-02-04T13:48:45;5.20;;;4.90;;
5612;SDS011;63463;53.586;9.928;2023-02-04T13:51:11;5.93;;;4.70;;
5612;SDS011;63463;53.586;9.928;2023-02-04T13:53:37;4.60;;;4.40;;
5612;SDS011;63463;53.586;9.928;2023-02-04T13:56:03;4.60;;;4.30;;
5612;SDS011;63463;53.586;9.928;2023-02-04T13:58:29;5.30;;;4.80;;
5612;SDS011;63463;53.586;9.928;2023-02-04T14:00:55;5.00;;;4.70;;
5612;SDS011;63463;53.586;9.928;2023-02-04T14:03:22;5.53;;;5.13;;
5612;SDS011;63463;53.586;9.928;2023-02-04T14:05:48;4.57;;;4.37;;
5612;SDS011;63463;53.586;9.928;2023-02-04T14:08:14;5.63;;;4.70;;
5612;SDS011;63463;53.586;9.928;2023-02-04T14:10:41;5.13;;;4.83;;
5612;SDS011;63463;53.586;9.928;2023-02-04T14:13:07;4.83;;;4.63;;
5612;SDS011;63463;53.586;9.928;2023-02-04T14:15:33;5.00;;;4.80;;
5612;SDS011;63463;53.586;9.928;2023-02-04T14:17:59;5.53;;;4.80;;
5612;SDS011;63463;53.586;9.928;2023-02-04T14:20:25;5.07;;;4.87;;
5612;SDS011;63463;53.586;9.928;2023-02-04T14:22:51;5.40;;;5.00;;
5612;SDS011;63463;53.586;9.928;2023-02-04T14:25:17;5.40;;;4.87;;
5612;SDS011;63463;53.586;9.928;2023-02-04T14:27:43;5.30;;;4.70;;
5612;SDS011;63463;53.586;9.928;2023-02-04T14:30:20;4.83;;;4.57;;
5612;SDS011;63463;53.586;9.928;2023-02-04T14:32:46;4.97;;;4.77;;
5612;SDS011;63463;53.586;9.928;2023-02-04T14:35:13;5.10;;;4.80;;
5612;SDS011;63463;53.586;9.928;2023-02-04T14:37:41;5.33;;;4.90;;
5612;SDS011;63463;53.586;9.928;2023-02-04T14:40:08;5.27;;;4.97;;
5612;SDS011;63463;53.586;9.928;2023-02-04T14:42:34;4.73;;;4.53;;
5612;SDS011;63463;53.586;9.928;2023-02-04T14:45:01;6.73;;;5.10;;
5612;SDS011;63463;53.586;9.928;2023-02-04T14:47:31;5.07;;;4.77;;
5612;SDS011;63463;53.586;9.928;2023-02-04T14:49:57;4.93;;;4.67;;
5612;SDS011;63463;53.586;9.928;2023-02-04T14:52:23;5.53;;;5.00;;
5612;SDS011;63463;53.586;9.928;2023-02-04T14:54:49;4.90;;;4.70;;
5612;SDS011;63463;53.586;9.928;2023-02-04T14:57:15;8.70;;;5.00;;
5612;SDS011;63463;53.586;9.928;2023-02-04T14:59:41;5.67;;;5.30;;
5612;SDS011;63463;53.586;9.928;2023-02-04T15:02:08;6.10;;;5.53;;